sensor_id;sensor_type;location;lat;lon;timestamp;temperature;humidity
18654;DHT22;9456;47.824;16.228;2023-07-13T00:01:31;18.30;99.90
18654;DHT22;9456;47.824;16.228;2023-07-13T00:04:00;18.30;99.90
18654;DHT22;9456;47.824;16.228;2023-07-13T00:06:29;18.30;99.90
18654;DHT22;9456;47.824;16.228;2023-07-13T00:08:58;18.30;99.90
18654;DHT22;9456;47.824;16.228;2023-07-13T00:11:27;18.30;99.90
18654;DHT22;9456;47.824;16.228;2023-07-13T00:13:56;18.30;99.90
18654;DHT22;9456;47.824;16.228;2023-07-13T00:16:25;18.30;99.90
18654;DHT22;9456;47.824;16.228;2023-07-13T00:18:53;18.30;99.90
18654;DHT22;9456;47.824;16.228;2023-07-13T00:21:22;18.20;99.90
18654;DHT22;9456;47.824;16.228;2023-07-13T00:23:51;18.20;99.90
18654;DHT22;9456;47.824;16.228;2023-07-13T00:26:20;18.20;99.90
18654;DHT22;9456;47.824;16.228;2023-07-13T00:28:49;18.20;99.90
18654;DHT22;9456;47.824;16.228;2023-07-13T00:31:18;18.20;99.90
18654;DHT22;9456;47.824;16.228;2023-07-13T00:33:47;18.10;99.90
18654;DHT22;9456;47.824;16.228;2023-07-13T00:36:16;18.10;99.90
18654;DHT22;9456;47.824;16.228;2023-07-13T00:38:45;18.00;99.90
18654;DHT22;9456;47.824;16.228;2023-07-13T00:41:14;18.00;99.90
18654;DHT22;9456;47.824;16.228;2023-07-13T00:43:42;18.00;99.90
18654;DHT22;9456;47.824;16.228;2023-07-13T00:46:17;18.00;99.90
18654;DHT22;9456;47.824;16.228;2023-07-13T00:48:46;17.90;99.90
18654;DHT22;9456;47.824;16.228;2023-07-13T00:51:14;17.90;99.90
18654;DHT22;9456;47.824;16.228;2023-07-13T00:53:43;17.90;99.90
18654;DHT22;9456;47.824;16.228;2023-07-13T00:56:12;17.90;99.90
18654;DHT22;9456;47.824;16.228;2023-07-13T00:58:41;17.90;99.90
18654;DHT22;9456;47.824;16.228;2023-07-13T01:01:10;17.90;99.90
18654;DHT22;9456;47.824;16.228;2023-07-13T01:03:39;17.90;99.90
18654;DHT22;9456;47.824;16.228;2023-07-13T01:06:09;17.90;99.90
18654;DHT22;9456;47.824;16.228;2023-07-13T01:08:37;17.90;99.90
18654;DHT22;9456;47.824;16.228;2023-07-13T01:11:07;17.90;99.90
18654;DHT22;9456;47.824;16.228;2023-07-13T01:13:36;17.90;99.90
18654;DHT22;9456;47.824;16.228;2023-07-13T01:16:11;17.90;99.90
18654;DHT22;9456;47.824;16.228;2023-07-13T01:18:35;17.90;99.90
18654;DHT22;9456;47.824;16.228;2023-07-13T01:21:04;17.90;99.90
18654;DHT22;9456;47.824;16.228;2023-07-13T01:23:33;17.90;99.90
18654;DHT22;9456;47.824;16.228;2023-07-13T01:26:02;17.90;99.90
18654;DHT22;9456;47.824;16.228;2023-07-13T01:28:31;18.00;99.90
18654;DHT22;9456;47.824;16.228;2023-07-13T01:31:00;17.90;99.90
18654;DHT22;9456;47.824;16.228;2023-07-13T01:33:29;18.00;99.90
18654;DHT22;9456;47.824;16.228;2023-07-13T01:35:58;17.90;99.90
18654;DHT22;9456;47.824;16.228;2023-07-13T01:38:27;18.00;99.90
18654;DHT22;9456;47.824;16.228;2023-07-13T01:40:56;18.00;99.90
18654;DHT22;9456;47.824;16.228;2023-07-13T01:43:25;18.00;99.90
18654;DHT22;9456;47.824;16.228;2023-07-13T01:45:54;18.00;99.90
18654;DHT22;9456;47.824;16.228;2023-07-13T01:48:23;18.00;99.90
18654;DHT22;9456;47.824;16.228;2023-07-13T01:50:52;18.10;99.90
18654;DHT22;9456;47.824;16.228;2023-07-13T01:53:21;18.10;99.90
18654;DHT22;9456;47.824;16.228;2023-07-13T01:55:50;18.10;99.90
18654;DHT22;9456;47.824;16.228;2023-07-13T01:58:18;18.10;99.90
18654;DHT22;9456;47.824;16.228;2023-07-13T02:00:50;18.10;99.90
18654;DHT22;9456;47.824;16.228;2023-07-13T02:03:19;18.10;99.90
18654;DHT22;9456;47.824;16.228;2023-07-13T02:05:47;18.20;99.90
18654;DHT22;9456;47.824;16.228;2023-07-13T02:08:16;18.20;99.90
18654;DHT22;9456;47.824;16.228;2023-07-13T02:10:45;18.20;99.90
18654;DHT22;9456;47.824;16.228;2023-07-13T02:13:15;18.30;99.90
18654;DHT22;9456;47.824;16.228;2023-07-13T02:15:43;18.30;99.90
18654;DHT22;9456;47.824;16.228;2023-07-13T02:18:12;18.30;99.90
18654;DHT22;9456;47.824;16.228;2023-07-13T02:20:42;18.30;99.90
18654;DHT22;9456;47.824;16.228;2023-07-13T02:23:11;18.30;99.90
18654;DHT22;9456;47.824;16.228;2023-07-13T02:25:40;18.30;99.90
18654;DHT22;9456;47.824;16.228;2023-07-13T02:28:09;18.30;99.90
18654;DHT22;9456;47.824;16.228;2023-07-13T02:30:38;18.30;99.90
18654;DHT22;9456;47.824;16.228;2023-07-13T02:33:07;18.30;99.90
18654;DHT22;9456;47.824;16.228;2023-07-13T02:35:36;18.40;99.90
18654;DHT22;9456;47.824;16.228;2023-07-13T02:38:05;18.40;99.90
18654;DHT22;9456;47.824;16.228;2023-07-13T02:40:34;18.30;99.90
18654;DHT22;9456;47.824;16.228;2023-07-13T02:43:03;18.40;99.90
18654;DHT22;9456;47.824;16.228;2023-07-13T02:45:31;18.40;99.90
18654;DHT22;9456;47.824;16.228;2023-07-13T02:48:00;18.40;99.90
18654;DHT22;9456;47.824;16.228;2023-07-13T02:50:29;18.40;99.90
18654;DHT22;9456;47.824;16.228;2023-07-13T02:52:58;18.50;99.90
18654;DHT22;9456;47.824;16.228;2023-07-13T02:55:27;18.50;99.90
18654;DHT22;9456;47.824;16.228;2023-07-13T02:57:56;18.40;99.90
18654;DHT22;9456;47.824;16.228;2023-07-13T03:00:25;18.50;99.90
18654;DHT22;9456;47.824;16.228;2023-07-13T03:02:54;18.40;99.90
18654;DHT22;9456;47.824;16.228;2023-07-13T03:05:23;18.50;99.90
18654;DHT22;9456;47.824;16.228;2023-07-13T03:07:52;18.40;99.90
18654;DHT22;9456;47.824;16.228;2023-07-13T03:10:21;18.40;99.90
18654;DHT22;9456;47.824;16.228;2023-07-13T03:12:50;18.40;99.90
18654;DHT22;9456;47.824;16.228;2023-07-13T03:15:19;18.40;99.90
18654;DHT22;9456;47.824;16.228;2023-07-13T03:17:48;18.40;99.90
18654;DHT22;9456;47.824;16.228;2023-07-13T03:20:17;18.40;99.90
18654;DHT22;9456;47.824;16.228;2023-07-13T03:22:46;18.40;99.90
18654;DHT22;9456;47.824;16.228;2023-07-13T03:25:15;18.30;99.90
18654;DHT22;9456;47.824;16.228;2023-07-13T03:27:44;18.30;99.90
18654;DHT22;9456;47.824;16.228;2023-07-13T03:30:14;18.30;99.90
18654;DHT22;9456;47.824;16.228;2023-07-13T03:32:43;18.20;99.90
18654;DHT22;9456;47.824;16.228;2023-07-13T03:35:12;18.20;99.90
18654;DHT22;9456;47.824;16.228;2023-07-13T03:37:41;18.20;99.90
18654;DHT22;9456;47.824;16.228;2023-07-13T03:40:11;18.20;99.90
18654;DHT22;9456;47.824;16.228;2023-07-13T03:42:40;18.20;99.90
18654;DHT22;9456;47.824;16.228;2023-07-13T03:45:10;18.20;99.90
18654;DHT22;9456;47.824;16.228;2023-07-13T03:47:39;18.20;99.90
18654;DHT22;9456;47.824;16.228;2023-07-13T03:50:09;18.20;99.90
18654;DHT22;9456;47.824;16.228;2023-07-13T03:52:38;18.20;99.90
18654;DHT22;9456;47.824;16.228;2023-07-13T03:55:07;18.20;99.90
18654;DHT22;9456;47.824;16.228;2023-07-13T03:57:37;18.20;99.90
18654;DHT22;9456;47.824;16.228;2023-07-13T04:00:08;18.10;99.90
18654;DHT22;9456;47.824;16.228;2023-07-13T04:02:37;18.10;99.90
18654;DHT22;9456;47.824;16.228;2023-07-13T04:05:07;18.10;99.90
18654;DHT22;9456;47.824;16.228;2023-07-13T04:07:36;18.00;99.90
18654;DHT22;9456;47.824;16.228;2023-07-13T04:10:06;18.00;99.90
18654;DHT22;9456;47.824;16.228;2023-07-13T04:12:35;18.00;99.90
18654;DHT22;9456;47.824;16.228;2023-07-13T04:15:05;18.00;99.90
18654;DHT22;9456;47.824;16.228;2023-07-13T04:17:34;18.00;99.90
18654;DHT22;9456;47.824;16.228;2023-07-13T04:20:04;18.00;99.90
18654;DHT22;9456;47.824;16.228;2023-07-13T04:22:33;18.00;99.90
18654;DHT22;9456;47.824;16.228;2023-07-13T04:25:02;18.00;99.90
18654;DHT22;9456;47.824;16.228;2023-07-13T04:27:31;18.00;99.90
18654;DHT22;9456;47.824;16.228;2023-07-13T04:30:00;18.00;99.90
18654;DHT22;9456;47.824;16.228;2023-07-13T04:32:29;18.10;99.90
18654;DHT22;9456;47.824;16.228;2023-07-13T04:34:58;18.10;99.90
18654;DHT22;9456;47.824;16.228;2023-07-13T04:37:27;18.10;99.90
18654;DHT22;9456;47.824;16.228;2023-07-13T04:39:56;18.10;99.90
18654;DHT22;9456;47.824;16.228;2023-07-13T04:42:25;18.10;99.90
18654;DHT22;9456;47.824;16.228;2023-07-13T04:44:54;18.10;99.90
18654;DHT22;9456;47.824;16.228;2023-07-13T04:47:22;18.10;99.90
18654;DHT22;9456;47.824;16.228;2023-07-13T04:49:51;18.10;99.90
18654;DHT22;9456;47.824;16.228;2023-07-13T04:52:20;18.10;99.90
18654;DHT22;9456;47.824;16.228;2023-07-13T04:54:49;18.20;99.90
18654;DHT22;9456;47.824;16.228;2023-07-13T04:57:18;18.20;99.90
18654;DHT22;9456;47.824;16.228;2023-07-13T04:59:47;18.20;99.90
18654;DHT22;9456;47.824;16.228;2023-07-13T05:02:17;18.20;99.90
18654;DHT22;9456;47.824;16.228;2023-07-13T05:04:48;18.20;99.90
18654;DHT22;9456;47.824;16.228;2023-07-13T05:07:16;18.30;99.90
18654;DHT22;9456;47.824;16.228;2023-07-13T05:09:45;18.40;99.90
18654;DHT22;9456;47.824;16.228;2023-07-13T05:12:14;18.60;99.90
18654;DHT22;9456;47.824;16.228;2023-07-13T05:14:43;18.80;99.90
18654;DHT22;9456;47.824;16.228;2023-07-13T05:17:13;18.90;99.90
18654;DHT22;9456;47.824;16.228;2023-07-13T05:19:42;19.10;99.90
18654;DHT22;9456;47.824;16.228;2023-07-13T05:22:11;19.30;99.90
18654;DHT22;9456;47.824;16.228;2023-07-13T05:24:40;19.30;99.90
18654;DHT22;9456;47.824;16.228;2023-07-13T05:27:09;19.30;99.90
18654;DHT22;9456;47.824;16.228;2023-07-13T05:29:38;19.40;99.90
18654;DHT22;9456;47.824;16.228;2023-07-13T05:32:07;19.40;99.90
18654;DHT22;9456;47.824;16.228;2023-07-13T05:34:36;19.40;99.90
18654;DHT22;9456;47.824;16.228;2023-07-13T05:37:05;19.40;99.90
18654;DHT22;9456;47.824;16.228;2023-07-13T05:39:34;19.30;99.90
18654;DHT22;9456;47.824;16.228;2023-07-13T05:42:04;19.30;99.90
18654;DHT22;9456;47.824;16.228;2023-07-13T05:44:33;19.20;99.90
18654;DHT22;9456;47.824;16.228;2023-07-13T05:47:02;19.20;99.90
18654;DHT22;9456;47.824;16.228;2023-07-13T05:49:30;19.10;99.90
18654;DHT22;9456;47.824;16.228;2023-07-13T05:51:59;19.10;99.90
18654;DHT22;9456;47.824;16.228;2023-07-13T05:54:28;19.10;99.90
18654;DHT22;9456;47.824;16.228;2023-07-13T05:56:57;19.10;99.90
18654;DHT22;9456;47.824;16.228;2023-07-13T05:59:26;19.10;99.90
18654;DHT22;9456;47.824;16.228;2023-07-13T06:01:55;19.10;99.90
18654;DHT22;9456;47.824;16.228;2023-07-13T06:04:24;19.10;99.90
18654;DHT22;9456;47.824;16.228;2023-07-13T06:06:53;19.20;99.90
18654;DHT22;9456;47.824;16.228;2023-07-13T06:09:22;19.20;99.90
18654;DHT22;9456;47.824;16.228;2023-07-13T06:11:51;19.20;99.90
18654;DHT22;9456;47.824;16.228;2023-07-13T06:14:20;19.30;99.90
18654;DHT22;9456;47.824;16.228;2023-07-13T06:16:49;19.30;99.90
18654;DHT22;9456;47.824;16.228;2023-07-13T06:19:18;19.40;99.90
18654;DHT22;9456;47.824;16.228;2023-07-13T06:21:47;19.50;99.90
18654;DHT22;9456;47.824;16.228;2023-07-13T06:24:16;19.60;99.90
18654;DHT22;9456;47.824;16.228;2023-07-13T06:26:45;19.70;99.90
18654;DHT22;9456;47.824;16.228;2023-07-13T06:29:14;19.80;99.90
18654;DHT22;9456;47.824;16.228;2023-07-13T06:31:43;19.90;99.90
18654;DHT22;9456;47.824;16.228;2023-07-13T06:34:12;20.10;99.90
18654;DHT22;9456;47.824;16.228;2023-07-13T06:36:41;20.20;99.90
18654;DHT22;9456;47.824;16.228;2023-07-13T06:39:10;20.50;99.90
18654;DHT22;9456;47.824;16.228;2023-07-13T06:41:39;21.10;99.90
18654;DHT22;9456;47.824;16.228;2023-07-13T06:44:08;21.80;99.90
18654;DHT22;9456;47.824;16.228;2023-07-13T06:46:37;22.50;99.90
18654;DHT22;9456;47.824;16.228;2023-07-13T06:49:07;23.40;99.90
18654;DHT22;9456;47.824;16.228;2023-07-13T06:51:36;24.30;99.90
18654;DHT22;9456;47.824;16.228;2023-07-13T06:54:05;25.30;99.90
18654;DHT22;9456;47.824;16.228;2023-07-13T06:56:34;25.70;99.90
18654;DHT22;9456;47.824;16.228;2023-07-13T06:59:02;26.00;99.90
18654;DHT22;9456;47.824;16.228;2023-07-13T07:01:31;26.50;99.90
18654;DHT22;9456;47.824;16.228;2023-07-13T07:04:00;26.90;99.90
18654;DHT22;9456;47.824;16.228;2023-07-13T07:06:29;27.50;99.90
18654;DHT22;9456;47.824;16.228;2023-07-13T07:08:58;28.00;99.90
18654;DHT22;9456;47.824;16.228;2023-07-13T07:11:27;28.40;99.90
18654;DHT22;9456;47.824;16.228;2023-07-13T07:13:56;28.80;99.90
18654;DHT22;9456;47.824;16.228;2023-07-13T07:16:25;29.00;99.90
18654;DHT22;9456;47.824;16.228;2023-07-13T07:18:54;29.00;99.90
18654;DHT22;9456;47.824;16.228;2023-07-13T07:21:23;28.90;99.90
18654;DHT22;9456;47.824;16.228;2023-07-13T07:23:52;29.20;99.90
18654;DHT22;9456;47.824;16.228;2023-07-13T07:26:21;29.60;99.90
18654;DHT22;9456;47.824;16.228;2023-07-13T07:28:50;29.50;99.90
18654;DHT22;9456;47.824;16.228;2023-07-13T07:31:19;29.70;99.90
18654;DHT22;9456;47.824;16.228;2023-07-13T07:33:48;29.90;99.90
18654;DHT22;9456;47.824;16.228;2023-07-13T07:36:18;29.90;99.90
18654;DHT22;9456;47.824;16.228;2023-07-13T07:38:47;30.30;99.90
18654;DHT22;9456;47.824;16.228;2023-07-13T07:41:15;30.70;99.90
18654;DHT22;9456;47.824;16.228;2023-07-13T07:43:44;30.70;99.90
18654;DHT22;9456;47.824;16.228;2023-07-13T07:46:13;30.70;99.90
18654;DHT22;9456;47.824;16.228;2023-07-13T07:48:42;30.80;99.90
18654;DHT22;9456;47.824;16.228;2023-07-13T07:51:11;31.00;99.90
18654;DHT22;9456;47.824;16.228;2023-07-13T07:53:40;31.00;99.90
18654;DHT22;9456;47.824;16.228;2023-07-13T07:56:09;31.20;99.90
18654;DHT22;9456;47.824;16.228;2023-07-13T07:58:38;31.00;99.90
18654;DHT22;9456;47.824;16.228;2023-07-13T08:01:07;30.70;99.90
18654;DHT22;9456;47.824;16.228;2023-07-13T08:03:36;30.50;99.90
18654;DHT22;9456;47.824;16.228;2023-07-13T08:06:05;30.60;99.90
18654;DHT22;9456;47.824;16.228;2023-07-13T08:08:34;30.70;99.90
18654;DHT22;9456;47.824;16.228;2023-07-13T08:11:04;31.10;99.90
18654;DHT22;9456;47.824;16.228;2023-07-13T08:13:33;31.30;99.90
18654;DHT22;9456;47.824;16.228;2023-07-13T08:16:03;31.50;98.40
18654;DHT22;9456;47.824;16.228;2023-07-13T08:18:30;31.60;96.80
18654;DHT22;9456;47.824;16.228;2023-07-13T08:21:03;31.70;95.90
18654;DHT22;9456;47.824;16.228;2023-07-13T08:23:32;31.70;93.20
18654;DHT22;9456;47.824;16.228;2023-07-13T08:26:02;31.70;93.60
18654;DHT22;9456;47.824;16.228;2023-07-13T08:28:30;31.80;91.20
18654;DHT22;9456;47.824;16.228;2023-07-13T08:31:02;31.80;91.50
18654;DHT22;9456;47.824;16.228;2023-07-13T08:33:31;31.80;87.40
18654;DHT22;9456;47.824;16.228;2023-07-13T08:36:00;31.90;91.70
18654;DHT22;9456;47.824;16.228;2023-07-13T08:38:29;32.20;89.60
18654;DHT22;9456;47.824;16.228;2023-07-13T08:40:58;32.10;84.40
18654;DHT22;9456;47.824;16.228;2023-07-13T08:43:28;32.20;85.00
18654;DHT22;9456;47.824;16.228;2023-07-13T08:45:57;32.20;83.20
18654;DHT22;9456;47.824;16.228;2023-07-13T08:48:26;32.30;79.50
18654;DHT22;9456;47.824;16.228;2023-07-13T08:50:55;32.30;81.20
18654;DHT22;9456;47.824;16.228;2023-07-13T08:53:23;32.30;79.90
18654;DHT22;9456;47.824;16.228;2023-07-13T08:55:55;32.30;79.80
18654;DHT22;9456;47.824;16.228;2023-07-13T08:58:21;32.20;80.50
18654;DHT22;9456;47.824;16.228;2023-07-13T09:00:52;32.20;80.90
18654;DHT22;9456;47.824;16.228;2023-07-13T09:03:22;32.40;83.10
18654;DHT22;9456;47.824;16.228;2023-07-13T09:05:52;32.60;79.20
18654;DHT22;9456;47.824;16.228;2023-07-13T09:08:28;32.60;75.30
18654;DHT22;9456;47.824;16.228;2023-07-13T09:10:58;32.60;74.60
18654;DHT22;9456;47.824;16.228;2023-07-13T09:13:27;32.60;75.80
18654;DHT22;9456;47.824;16.228;2023-07-13T09:15:55;32.60;76.00
18654;DHT22;9456;47.824;16.228;2023-07-13T09:18:25;32.70;76.50
18654;DHT22;9456;47.824;16.228;2023-07-13T09:20:54;32.80;73.10
18654;DHT22;9456;47.824;16.228;2023-07-13T09:23:23;32.70;72.70
18654;DHT22;9456;47.824;16.228;2023-07-13T09:25:53;32.60;75.30
18654;DHT22;9456;47.824;16.228;2023-07-13T09:28:29;32.50;72.60
18654;DHT22;9456;47.824;16.228;2023-07-13T09:31:00;31.90;71.40
18654;DHT22;9456;47.824;16.228;2023-07-13T09:33:28;31.30;73.80
18654;DHT22;9456;47.824;16.228;2023-07-13T09:35:57;30.70;74.90
18654;DHT22;9456;47.824;16.228;2023-07-13T09:38:26;30.30;77.60
18654;DHT22;9456;47.824;16.228;2023-07-13T09:41:03;29.90;79.70
18654;DHT22;9456;47.824;16.228;2023-07-13T09:43:31;29.70;80.40
18654;DHT22;9456;47.824;16.228;2023-07-13T09:46:00;29.40;81.00
18654;DHT22;9456;47.824;16.228;2023-07-13T09:48:33;29.20;83.20
18654;DHT22;9456;47.824;16.228;2023-07-13T09:51:01;29.00;82.20
18654;DHT22;9456;47.824;16.228;2023-07-13T09:53:29;29.00;83.60
18654;DHT22;9456;47.824;16.228;2023-07-13T09:55:58;29.00;84.10
18654;DHT22;9456;47.824;16.228;2023-07-13T09:58:29;29.20;83.70
18654;DHT22;9456;47.824;16.228;2023-07-13T10:00:57;29.70;81.30
18654;DHT22;9456;47.824;16.228;2023-07-13T10:03:27;29.70;81.30
18654;DHT22;9456;47.824;16.228;2023-07-13T10:05:55;29.50;79.40
18654;DHT22;9456;47.824;16.228;2023-07-13T10:08:25;29.30;79.60
18654;DHT22;9456;47.824;16.228;2023-07-13T10:10:59;29.10;79.90
18654;DHT22;9456;47.824;16.228;2023-07-13T10:13:31;28.90;82.80
18654;DHT22;9456;47.824;16.228;2023-07-13T10:15:58;28.70;84.20
18654;DHT22;9456;47.824;16.228;2023-07-13T10:18:27;28.60;85.00
18654;DHT22;9456;47.824;16.228;2023-07-13T10:21:00;28.60;82.80
18654;DHT22;9456;47.824;16.228;2023-07-13T10:23:28;28.50;85.70
18654;DHT22;9456;47.824;16.228;2023-07-13T10:25:57;28.40;84.80
18654;DHT22;9456;47.824;16.228;2023-07-13T10:28:28;28.60;89.20
18654;DHT22;9456;47.824;16.228;2023-07-13T10:30:56;28.80;85.90
18654;DHT22;9456;47.824;16.228;2023-07-13T10:33:25;29.10;83.20
18654;DHT22;9456;47.824;16.228;2023-07-13T10:35:56;29.40;83.20
18654;DHT22;9456;47.824;16.228;2023-07-13T10:38:23;29.80;78.80
18654;DHT22;9456;47.824;16.228;2023-07-13T10:40:54;30.10;76.40
18654;DHT22;9456;47.824;16.228;2023-07-13T10:43:25;30.50;76.60
18654;DHT22;9456;47.824;16.228;2023-07-13T10:45:51;30.90;73.90
18654;DHT22;9456;47.824;16.228;2023-07-13T10:48:20;31.00;72.10
18654;DHT22;9456;47.824;16.228;2023-07-13T10:50:49;31.20;74.20
18654;DHT22;9456;47.824;16.228;2023-07-13T10:53:21;31.30;73.00
18654;DHT22;9456;47.824;16.228;2023-07-13T10:56:00;31.40;70.00
18654;DHT22;9456;47.824;16.228;2023-07-13T10:58:34;31.40;70.80
18654;DHT22;9456;47.824;16.228;2023-07-13T11:01:06;31.40;69.20
18654;DHT22;9456;47.824;16.228;2023-07-13T11:03:34;31.40;68.10
18654;DHT22;9456;47.824;16.228;2023-07-13T11:06:11;31.30;67.40
18654;DHT22;9456;47.824;16.228;2023-07-13T11:08:50;31.30;67.20
18654;DHT22;9456;47.824;16.228;2023-07-13T11:11:34;31.30;66.90
18654;DHT22;9456;47.824;16.228;2023-07-13T11:14:03;31.10;64.70
18654;DHT22;9456;47.824;16.228;2023-07-13T11:16:56;31.10;66.10
18654;DHT22;9456;47.824;16.228;2023-07-13T11:19:37;31.20;66.80
18654;DHT22;9456;47.824;16.228;2023-07-13T11:22:13;31.10;65.10
18654;DHT22;9456;47.824;16.228;2023-07-13T11:24:52;31.00;66.80
18654;DHT22;9456;47.824;16.228;2023-07-13T11:27:27;31.00;64.10
18654;DHT22;9456;47.824;16.228;2023-07-13T11:29:53;30.90;64.90
18654;DHT22;9456;47.824;16.228;2023-07-13T11:32:25;30.80;65.30
18654;DHT22;9456;47.824;16.228;2023-07-13T11:34:54;30.70;64.00
18654;DHT22;9456;47.824;16.228;2023-07-13T11:37:23;30.70;64.70
18654;DHT22;9456;47.824;16.228;2023-07-13T11:39:52;30.60;62.90
18654;DHT22;9456;47.824;16.228;2023-07-13T11:42:21;30.50;61.70
18654;DHT22;9456;47.824;16.228;2023-07-13T11:44:50;30.30;62.10
18654;DHT22;9456;47.824;16.228;2023-07-13T11:47:19;30.10;60.40
18654;DHT22;9456;47.824;16.228;2023-07-13T11:49:49;29.80;61.00
18654;DHT22;9456;47.824;16.228;2023-07-13T11:52:19;29.50;63.30
18654;DHT22;9456;47.824;16.228;2023-07-13T11:54:48;29.30;62.20
18654;DHT22;9456;47.824;16.228;2023-07-13T11:57:21;29.20;64.40
18654;DHT22;9456;47.824;16.228;2023-07-13T11:59:49;29.10;63.10
18654;DHT22;9456;47.824;16.228;2023-07-13T12:02:20;29.00;62.80
18654;DHT22;9456;47.824;16.228;2023-07-13T12:04:47;28.80;64.00
18654;DHT22;9456;47.824;16.228;2023-07-13T12:07:16;28.70;62.80
18654;DHT22;9456;47.824;16.228;2023-07-13T12:09:45;28.80;63.00
18654;DHT22;9456;47.824;16.228;2023-07-13T12:12:15;28.80;63.00
18654;DHT22;9456;47.824;16.228;2023-07-13T12:14:43;28.70;64.40
18654;DHT22;9456;47.824;16.228;2023-07-13T12:17:15;28.80;65.10
18654;DHT22;9456;47.824;16.228;2023-07-13T12:19:42;28.70;65.40
18654;DHT22;9456;47.824;16.228;2023-07-13T12:22:12;28.80;64.80
18654;DHT22;9456;47.824;16.228;2023-07-13T12:24:40;28.80;63.70
18654;DHT22;9456;47.824;16.228;2023-07-13T12:29:51;28.90;63.80
18654;DHT22;9456;47.824;16.228;2023-07-13T12:32:20;28.80;65.10
18654;DHT22;9456;47.824;16.228;2023-07-13T12:34:53;28.90;64.50
18654;DHT22;9456;47.824;16.228;2023-07-13T12:37:22;28.90;64.70
18654;DHT22;9456;47.824;16.228;2023-07-13T12:39:51;28.80;64.70
18654;DHT22;9456;47.824;16.228;2023-07-13T12:42:21;28.70;64.60
18654;DHT22;9456;47.824;16.228;2023-07-13T12:44:49;28.70;64.60
18654;DHT22;9456;47.824;16.228;2023-07-13T12:47:19;28.70;66.20
18654;DHT22;9456;47.824;16.228;2023-07-13T12:49:50;28.70;67.00
18654;DHT22;9456;47.824;16.228;2023-07-13T12:52:20;28.60;66.40
18654;DHT22;9456;47.824;16.228;2023-07-13T12:54:54;28.60;66.70
18654;DHT22;9456;47.824;16.228;2023-07-13T12:57:25;28.60;65.70
18654;DHT22;9456;47.824;16.228;2023-07-13T12:59:54;28.50;65.40
18654;DHT22;9456;47.824;16.228;2023-07-13T13:02:28;28.30;66.50
18654;DHT22;9456;47.824;16.228;2023-07-13T13:04:57;28.30;66.80
18654;DHT22;9456;47.824;16.228;2023-07-13T13:07:26;28.30;67.90
18654;DHT22;9456;47.824;16.228;2023-07-13T13:09:54;28.30;67.30
18654;DHT22;9456;47.824;16.228;2023-07-13T13:12:23;28.20;68.20
18654;DHT22;9456;47.824;16.228;2023-07-13T13:14:53;28.20;67.60
18654;DHT22;9456;47.824;16.228;2023-07-13T13:17:22;28.20;67.30
18654;DHT22;9456;47.824;16.228;2023-07-13T13:19:51;28.20;67.60
18654;DHT22;9456;47.824;16.228;2023-07-13T13:22:21;28.30;67.20
18654;DHT22;9456;47.824;16.228;2023-07-13T13:24:50;28.30;66.40
18654;DHT22;9456;47.824;16.228;2023-07-13T13:27:19;28.20;66.30
18654;DHT22;9456;47.824;16.228;2023-07-13T13:29:48;28.10;67.40
18654;DHT22;9456;47.824;16.228;2023-07-13T13:32:17;28.10;66.50
18654;DHT22;9456;47.824;16.228;2023-07-13T13:34:46;28.10;66.00
18654;DHT22;9456;47.824;16.228;2023-07-13T13:37:21;28.10;65.80
18654;DHT22;9456;47.824;16.228;2023-07-13T13:39:49;28.10;66.70
18654;DHT22;9456;47.824;16.228;2023-07-13T13:42:18;28.00;66.60
18654;DHT22;9456;47.824;16.228;2023-07-13T13:44:48;28.00;66.50
18654;DHT22;9456;47.824;16.228;2023-07-13T13:47:23;27.90;68.40
18654;DHT22;9456;47.824;16.228;2023-07-13T13:49:51;27.80;68.20
18654;DHT22;9456;47.824;16.228;2023-07-13T13:52:20;27.80;68.30
18654;DHT22;9456;47.824;16.228;2023-07-13T13:54:49;27.70;69.00
18654;DHT22;9456;47.824;16.228;2023-07-13T13:57:18;27.60;69.10
18654;DHT22;9456;47.824;16.228;2023-07-13T13:59:47;27.40;69.00
18654;DHT22;9456;47.824;16.228;2023-07-13T14:02:26;27.30;69.90
18654;DHT22;9456;47.824;16.228;2023-07-13T14:04:56;27.10;70.30
18654;DHT22;9456;47.824;16.228;2023-07-13T14:07:24;27.00;72.20
18654;DHT22;9456;47.824;16.228;2023-07-13T14:09:54;26.90;71.80
18654;DHT22;9456;47.824;16.228;2023-07-13T14:12:23;26.80;71.60
18654;DHT22;9456;47.824;16.228;2023-07-13T14:14:52;26.60;71.10
18654;DHT22;9456;47.824;16.228;2023-07-13T14:17:25;26.50;71.50
18654;DHT22;9456;47.824;16.228;2023-07-13T14:19:51;26.40;72.30
18654;DHT22;9456;47.824;16.228;2023-07-13T14:22:20;26.30;74.90
18654;DHT22;9456;47.824;16.228;2023-07-13T14:24:48;26.20;76.20
18654;DHT22;9456;47.824;16.228;2023-07-13T14:27:17;26.10;75.30
18654;DHT22;9456;47.824;16.228;2023-07-13T14:29:46;26.10;75.70
18654;DHT22;9456;47.824;16.228;2023-07-13T14:32:15;26.00;74.50
18654;DHT22;9456;47.824;16.228;2023-07-13T14:34:44;25.90;73.90
18654;DHT22;9456;47.824;16.228;2023-07-13T14:37:14;25.80;75.10
18654;DHT22;9456;47.824;16.228;2023-07-13T14:39:46;25.80;76.40
18654;DHT22;9456;47.824;16.228;2023-07-13T14:42:14;25.70;77.80
18654;DHT22;9456;47.824;16.228;2023-07-13T14:44:43;25.60;79.10
18654;DHT22;9456;47.824;16.228;2023-07-13T14:47:12;25.60;81.00
18654;DHT22;9456;47.824;16.228;2023-07-13T14:49:42;25.50;80.40
18654;DHT22;9456;47.824;16.228;2023-07-13T14:52:12;25.50;81.00
18654;DHT22;9456;47.824;16.228;2023-07-13T14:54:40;25.40;81.40
18654;DHT22;9456;47.824;16.228;2023-07-13T14:57:12;25.40;82.30
18654;DHT22;9456;47.824;16.228;2023-07-13T14:59:40;25.30;83.00
18654;DHT22;9456;47.824;16.228;2023-07-13T15:02:16;25.30;83.50
18654;DHT22;9456;47.824;16.228;2023-07-13T15:04:45;25.30;84.10
18654;DHT22;9456;47.824;16.228;2023-07-13T15:07:14;25.30;84.40
18654;DHT22;9456;47.824;16.228;2023-07-13T15:09:43;25.30;85.10
18654;DHT22;9456;47.824;16.228;2023-07-13T15:12:12;25.30;86.00
18654;DHT22;9456;47.824;16.228;2023-07-13T15:14:41;25.30;84.90
18654;DHT22;9456;47.824;16.228;2023-07-13T15:17:17;25.30;85.00
18654;DHT22;9456;47.824;16.228;2023-07-13T15:19:43;25.30;84.70
18654;DHT22;9456;47.824;16.228;2023-07-13T15:22:12;25.30;86.80
18654;DHT22;9456;47.824;16.228;2023-07-13T15:24:41;25.40;86.20
18654;DHT22;9456;47.824;16.228;2023-07-13T15:27:12;25.40;86.70
18654;DHT22;9456;47.824;16.228;2023-07-13T15:29:40;25.50;87.50
18654;DHT22;9456;47.824;16.228;2023-07-13T15:32:12;25.50;87.70
18654;DHT22;9456;47.824;16.228;2023-07-13T15:34:41;25.60;86.70
18654;DHT22;9456;47.824;16.228;2023-07-13T15:37:14;25.60;85.60
18654;DHT22;9456;47.824;16.228;2023-07-13T15:39:43;25.60;84.30
18654;DHT22;9456;47.824;16.228;2023-07-13T15:42:16;25.60;84.20
18654;DHT22;9456;47.824;16.228;2023-07-13T15:44:44;25.50;83.60
18654;DHT22;9456;47.824;16.228;2023-07-13T15:47:14;25.40;85.20